This is the latest recevied weather packets stored in our database for station/object WA4TPR. If no packets are shown the sender has not sent any weather packets the latest 10 day(s).
| Time | Temp. | Humidity | Pressure | Rain* | Wind** | Luminosity | Snow |
|---|---|---|---|---|---|---|---|
| 1788553028 | 35° C | 65% | 1015.9 hPa | 0 mm | - | 600 W/m² | - |
| 1788552722 | 35° C | 66% | 1016.1 hPa | 0 mm | - | 560 W/m² | - |
| 1788552417 | 35° C | 65% | 1015.9 hPa | 0 mm | - | 554 W/m² | - |
| 1788552111 | 35° C | 65% | 1016.1 hPa | 0 mm | - | 743 W/m² | - |
| 1788551810 | 33.89° C | 69% | 1016.2 hPa | 0 mm | - | 729 W/m² | - |
| 1788551504 | 33.89° C | 67% | 1016.4 hPa | 0 mm | - | 708 W/m² | - |
| 1788551204 | 35° C | 68% | 1016.3 hPa | 0 mm | - | 700 W/m² | - |
| 1788550898 | 33.89° C | 69% | 1016.5 hPa | 0 mm | - | 705 W/m² | - |
| 1788550593 | 33.33° C | 72% | 1016.6 hPa | 0 mm | - | 705 W/m² | - |
| 1788550290 | 33.33° C | 73% | 1016.6 hPa | 0 mm | - | 711 W/m² | - |
| 1788549990 | 33.89° C | 70% | 1016.8 hPa | 0 mm | - | 720 W/m² | - |
| 1788549685 | 34.44° C | 71% | 1016.8 hPa | 0 mm | - | 711 W/m² | - |
| 1788549382 | 33.89° C | 72% | 1016.9 hPa | 0 mm | - | 716 W/m² | - |
| 1788549078 | 33.89° C | 72% | 1016.7 hPa | 0 mm | - | 733 W/m² | - |
| 1788548774 | 33.33° C | 75% | 1016.7 hPa | 0 mm | - | 757 W/m² | - |
| 1788548470 | 32.78° C | 76% | 1017 hPa | 0 mm | - | 754 W/m² | - |
| 1788548166 | 32.78° C | 75% | 1016.9 hPa | 0 mm | - | 717 W/m² | - |
| 1788547861 | 32.22° C | 77% | 1017 hPa | 0 mm | - | 517 W/m² | - |
| 1788547559 | 33.33° C | 78% | 1017.2 hPa | 0 mm | - | 803 W/m² | - |
| 1788547255 | 33.89° C | 69% | 1017.1 hPa | 0 mm | - | 554 W/m² | - |
| 1788546950 | 34.44° C | 66% | 1017.1 hPa | 0 mm | - | 733 W/m² | - |
| 1788546645 | 34.44° C | 67% | 1017.2 hPa | 0 mm | - | 856 W/m² | - |
| 1788546341 | 33.89° C | 68% | 1017.3 hPa | 0 mm | - | 859 W/m² | - |
| 1788546041 | 32.78° C | 76% | 1017.4 hPa | 0 mm | - | 893 W/m² | - |
| 1788545737 | 32.22° C | 77% | 1017.6 hPa | 0 mm | - | 405 W/m² | - |
* Rain latest hour (hover to see other rain measurements)
** Current wind speed in m/s (hover to see current wind gust speed)